Val Verde, Texas
Current Conditions -  °F | °C
As of 9:55 PM on Sunday 23 Nov 2014 (Local Time) from KT35 Reporting Station
Clear Clear  
Wind Chill: 60°   Ceiling: Unl
Heat Index: 60°   Visibility: 10mi
Dew Point: 44°   Wind: 21mph
Humidity: 55%   Direction: 340°NNW
Pressure: 29.76"   Gusts: 28mph
Location:  30.8953°N, 97.127°W
Report Text: KT35 240355Z AUTO 34018G24KT 10SM CLR 16/07 A2976 RMK AO2 T01570066
Loading
Personal Weather Stations






























Interactive Weather Map New forecast layout! Learn more

10-Day Weather Forecast

Advertisements
Track Severe Weather on mobile